sensor_id;sensor_type;location;lat;lon;timestamp;P1;durP1;ratioP1;P2;durP2;ratioP2
17574;SDS011;8906;43.590;1.418;2022-07-17T00:01:35;4.38;;;3.30;;
17574;SDS011;8906;43.590;1.418;2022-07-17T00:04:02;4.40;;;3.45;;
17574;SDS011;8906;43.590;1.418;2022-07-17T00:06:29;3.63;;;2.58;;
17574;SDS011;8906;43.590;1.418;2022-07-17T00:08:56;5.50;;;3.58;;
17574;SDS011;8906;43.590;1.418;2022-07-17T00:11:23;3.90;;;3.60;;
17574;SDS011;8906;43.590;1.418;2022-07-17T00:13:51;4.35;;;3.92;;
17574;SDS011;8906;43.590;1.418;2022-07-17T00:16:20;3.35;;;2.83;;
17574;SDS011;8906;43.590;1.418;2022-07-17T00:18:47;3.20;;;2.17;;
17574;SDS011;8906;43.590;1.418;2022-07-17T00:21:14;2.80;;;2.53;;
17574;SDS011;8906;43.590;1.418;2022-07-17T00:23:41;3.85;;;3.00;;
17574;SDS011;8906;43.590;1.418;2022-07-17T00:26:09;2.38;;;2.17;;
17574;SDS011;8906;43.590;1.418;2022-07-17T00:28:36;2.60;;;2.40;;
17574;SDS011;8906;43.590;1.418;2022-07-17T00:31:03;2.63;;;2.42;;
17574;SDS011;8906;43.590;1.418;2022-07-17T00:33:31;2.83;;;2.58;;
17574;SDS011;8906;43.590;1.418;2022-07-17T00:35:58;2.90;;;2.70;;
17574;SDS011;8906;43.590;1.418;2022-07-17T00:38:25;2.10;;;1.73;;
17574;SDS011;8906;43.590;1.418;2022-07-17T00:40:54;3.22;;;2.92;;
17574;SDS011;8906;43.590;1.418;2022-07-17T00:43:21;2.40;;;2.20;;
17574;SDS011;8906;43.590;1.418;2022-07-17T00:45:54;2.10;;;2.00;;
17574;SDS011;8906;43.590;1.418;2022-07-17T00:48:22;1.80;;;1.70;;
17574;SDS011;8906;43.590;1.418;2022-07-17T00:50:50;2.38;;;2.17;;
17574;SDS011;8906;43.590;1.418;2022-07-17T00:53:18;2.70;;;2.50;;
17574;SDS011;8906;43.590;1.418;2022-07-17T00:55:45;2.30;;;1.60;;
17574;SDS011;8906;43.590;1.418;2022-07-17T00:58:16;2.00;;;1.80;;
17574;SDS011;8906;43.590;1.418;2022-07-17T01:00:46;3.05;;;2.17;;
17574;SDS011;8906;43.590;1.418;2022-07-17T01:03:14;5.65;;;5.15;;
17574;SDS011;8906;43.590;1.418;2022-07-17T01:05:41;4.03;;;3.72;;
17574;SDS011;8906;43.590;1.418;2022-07-17T01:08:10;4.28;;;3.90;;
17574;SDS011;8906;43.590;1.418;2022-07-17T01:10:37;4.38;;;3.97;;
17574;SDS011;8906;43.590;1.418;2022-07-17T01:13:04;3.85;;;3.45;;
17574;SDS011;8906;43.590;1.418;2022-07-17T01:15:32;3.85;;;3.45;;
17574;SDS011;8906;43.590;1.418;2022-07-17T01:18:03;4.22;;;3.88;;
17574;SDS011;8906;43.590;1.418;2022-07-17T01:20:32;5.95;;;4.13;;
17574;SDS011;8906;43.590;1.418;2022-07-17T01:23:00;3.60;;;3.30;;
17574;SDS011;8906;43.590;1.418;2022-07-17T01:25:28;2.75;;;2.55;;
17574;SDS011;8906;43.590;1.418;2022-07-17T01:27:55;3.90;;;3.17;;
17574;SDS011;8906;43.590;1.418;2022-07-17T01:30:22;3.10;;;2.90;;
17574;SDS011;8906;43.590;1.418;2022-07-17T01:32:49;4.38;;;2.67;;
17574;SDS011;8906;43.590;1.418;2022-07-17T01:35:16;3.35;;;3.15;;
17574;SDS011;8906;43.590;1.418;2022-07-17T01:37:44;3.25;;;2.95;;
17574;SDS011;8906;43.590;1.418;2022-07-17T01:40:13;3.28;;;3.05;;
17574;SDS011;8906;43.590;1.418;2022-07-17T01:42:42;4.28;;;2.85;;
17574;SDS011;8906;43.590;1.418;2022-07-17T01:45:10;2.90;;;2.70;;
17574;SDS011;8906;43.590;1.418;2022-07-17T01:47:38;4.15;;;2.88;;
17574;SDS011;8906;43.590;1.418;2022-07-17T01:50:05;3.80;;;3.08;;
17574;SDS011;8906;43.590;1.418;2022-07-17T01:52:34;4.72;;;3.67;;
17574;SDS011;8906;43.590;1.418;2022-07-17T01:55:03;3.75;;;3.45;;
17574;SDS011;8906;43.590;1.418;2022-07-17T01:57:32;4.07;;;3.45;;
17574;SDS011;8906;43.590;1.418;2022-07-17T01:59:59;4.82;;;3.47;;
17574;SDS011;8906;43.590;1.418;2022-07-17T02:02:27;4.25;;;3.85;;
17574;SDS011;8906;43.590;1.418;2022-07-17T02:04:54;5.38;;;2.97;;
17574;SDS011;8906;43.590;1.418;2022-07-17T02:07:21;4.88;;;3.45;;
17574;SDS011;8906;43.590;1.418;2022-07-17T02:09:48;4.18;;;3.30;;
17574;SDS011;8906;43.590;1.418;2022-07-17T02:12:14;4.32;;;3.40;;
17574;SDS011;8906;43.590;1.418;2022-07-17T02:14:43;3.65;;;3.35;;
17574;SDS011;8906;43.590;1.418;2022-07-17T02:17:10;4.10;;;3.70;;
17574;SDS011;8906;43.590;1.418;2022-07-17T02:19:37;3.70;;;3.00;;
17574;SDS011;8906;43.590;1.418;2022-07-17T02:22:04;3.88;;;3.22;;
17574;SDS011;8906;43.590;1.418;2022-07-17T02:24:31;3.42;;;3.15;;
17574;SDS011;8906;43.590;1.418;2022-07-17T02:26:58;4.88;;;4.28;;
17574;SDS011;8906;43.590;1.418;2022-07-17T02:29:25;3.20;;;2.83;;
17574;SDS011;8906;43.590;1.418;2022-07-17T02:31:53;4.10;;;2.97;;
17574;SDS011;8906;43.590;1.418;2022-07-17T02:34:20;5.93;;;3.20;;
17574;SDS011;8906;43.590;1.418;2022-07-17T02:36:47;3.38;;;3.10;;
17574;SDS011;8906;43.590;1.418;2022-07-17T02:39:14;8.02;;;3.85;;
17574;SDS011;8906;43.590;1.418;2022-07-17T02:41:41;4.20;;;3.70;;
17574;SDS011;8906;43.590;1.418;2022-07-17T02:44:08;4.50;;;3.60;;
17574;SDS011;8906;43.590;1.418;2022-07-17T02:46:35;4.10;;;3.80;;
17574;SDS011;8906;43.590;1.418;2022-07-17T02:49:03;3.42;;;3.13;;
17574;SDS011;8906;43.590;1.418;2022-07-17T02:51:31;3.75;;;3.45;;
17574;SDS011;8906;43.590;1.418;2022-07-17T02:53:58;5.30;;;3.20;;
17574;SDS011;8906;43.590;1.418;2022-07-17T02:56:25;6.57;;;3.28;;
17574;SDS011;8906;43.590;1.418;2022-07-17T02:58:52;3.45;;;3.15;;
17574;SDS011;8906;43.590;1.418;2022-07-17T03:01:19;4.13;;;3.47;;
17574;SDS011;8906;43.590;1.418;2022-07-17T03:03:45;4.22;;;3.70;;
17574;SDS011;8906;43.590;1.418;2022-07-17T03:06:14;3.88;;;3.28;;
17574;SDS011;8906;43.590;1.418;2022-07-17T03:08:41;3.85;;;3.55;;
17574;SDS011;8906;43.590;1.418;2022-07-17T03:11:08;3.72;;;3.42;;
17574;SDS011;8906;43.590;1.418;2022-07-17T03:13:35;4.30;;;3.90;;
17574;SDS011;8906;43.590;1.418;2022-07-17T03:16:02;5.75;;;4.18;;
17574;SDS011;8906;43.590;1.418;2022-07-17T03:18:29;3.67;;;3.35;;
17574;SDS011;8906;43.590;1.418;2022-07-17T03:20:56;6.60;;;4.80;;
17574;SDS011;8906;43.590;1.418;2022-07-17T03:23:25;3.53;;;3.22;;
17574;SDS011;8906;43.590;1.418;2022-07-17T03:25:52;3.95;;;3.55;;
17574;SDS011;8906;43.590;1.418;2022-07-17T03:28:19;3.55;;;3.25;;
17574;SDS011;8906;43.590;1.418;2022-07-17T03:30:46;3.15;;;2.85;;
17574;SDS011;8906;43.590;1.418;2022-07-17T03:33:13;3.42;;;2.95;;
17574;SDS011;8906;43.590;1.418;2022-07-17T03:35:40;4.18;;;3.38;;
17574;SDS011;8906;43.590;1.418;2022-07-17T03:38:07;4.38;;;3.60;;
17574;SDS011;8906;43.590;1.418;2022-07-17T03:40:35;4.38;;;3.60;;
17574;SDS011;8906;43.590;1.418;2022-07-17T03:43:02;5.32;;;3.70;;
17574;SDS011;8906;43.590;1.418;2022-07-17T03:45:29;3.30;;;3.05;;
17574;SDS011;8906;43.590;1.418;2022-07-17T03:47:56;4.78;;;3.90;;
17574;SDS011;8906;43.590;1.418;2022-07-17T03:50:23;3.58;;;3.28;;
17574;SDS011;8906;43.590;1.418;2022-07-17T03:52:50;3.78;;;3.35;;
17574;SDS011;8906;43.590;1.418;2022-07-17T03:55:17;4.47;;;3.60;;
17574;SDS011;8906;43.590;1.418;2022-07-17T03:57:45;3.55;;;3.25;;
17574;SDS011;8906;43.590;1.418;2022-07-17T04:00:13;3.33;;;3.03;;
17574;SDS011;8906;43.590;1.418;2022-07-17T04:02:40;3.80;;;3.22;;
17574;SDS011;8906;43.590;1.418;2022-07-17T04:05:07;4.10;;;3.67;;
17574;SDS011;8906;43.590;1.418;2022-07-17T04:07:35;3.40;;;3.13;;
17574;SDS011;8906;43.590;1.418;2022-07-17T04:10:03;5.18;;;3.40;;
17574;SDS011;8906;43.590;1.418;2022-07-17T04:12:31;2.97;;;2.67;;
17574;SDS011;8906;43.590;1.418;2022-07-17T04:15:00;3.40;;;3.13;;
17574;SDS011;8906;43.590;1.418;2022-07-17T04:17:27;3.42;;;3.13;;
17574;SDS011;8906;43.590;1.418;2022-07-17T04:19:54;5.40;;;3.60;;
17574;SDS011;8906;43.590;1.418;2022-07-17T04:22:21;4.25;;;3.95;;
17574;SDS011;8906;43.590;1.418;2022-07-17T04:24:48;6.00;;;3.88;;
17574;SDS011;8906;43.590;1.418;2022-07-17T04:27:15;3.92;;;3.63;;
17574;SDS011;8906;43.590;1.418;2022-07-17T04:29:42;3.95;;;3.55;;
17574;SDS011;8906;43.590;1.418;2022-07-17T04:32:11;4.07;;;3.45;;
17574;SDS011;8906;43.590;1.418;2022-07-17T04:34:38;5.07;;;4.63;;
17574;SDS011;8906;43.590;1.418;2022-07-17T04:37:05;5.38;;;3.40;;
17574;SDS011;8906;43.590;1.418;2022-07-17T04:39:33;5.40;;;3.95;;
17574;SDS011;8906;43.590;1.418;2022-07-17T04:42:00;3.80;;;3.47;;
17574;SDS011;8906;43.590;1.418;2022-07-17T04:44:27;4.15;;;3.75;;
17574;SDS011;8906;43.590;1.418;2022-07-17T04:46:54;3.80;;;3.50;;
17574;SDS011;8906;43.590;1.418;2022-07-17T04:49:23;4.68;;;4.07;;
17574;SDS011;8906;43.590;1.418;2022-07-17T04:51:50;4.05;;;3.75;;
17574;SDS011;8906;43.590;1.418;2022-07-17T04:54:17;4.53;;;4.00;;
17574;SDS011;8906;43.590;1.418;2022-07-17T04:56:45;3.45;;;3.15;;
17574;SDS011;8906;43.590;1.418;2022-07-17T04:59:12;3.70;;;3.40;;
17574;SDS011;8906;43.590;1.418;2022-07-17T05:01:39;3.88;;;3.58;;
17574;SDS011;8906;43.590;1.418;2022-07-17T05:04:06;3.95;;;3.65;;
17574;SDS011;8906;43.590;1.418;2022-07-17T05:06:34;3.13;;;2.88;;
17574;SDS011;8906;43.590;1.418;2022-07-17T05:09:01;3.88;;;3.58;;
17574;SDS011;8906;43.590;1.418;2022-07-17T05:11:28;4.32;;;3.90;;
17574;SDS011;8906;43.590;1.418;2022-07-17T05:13:55;3.35;;;3.08;;
17574;SDS011;8906;43.590;1.418;2022-07-17T05:16:22;4.85;;;3.80;;
17574;SDS011;8906;43.590;1.418;2022-07-17T05:18:49;4.82;;;3.38;;
17574;SDS011;8906;43.590;1.418;2022-07-17T05:21:16;5.00;;;3.55;;
17574;SDS011;8906;43.590;1.418;2022-07-17T05:23:45;4.60;;;3.95;;
17574;SDS011;8906;43.590;1.418;2022-07-17T05:26:12;3.67;;;3.30;;
17574;SDS011;8906;43.590;1.418;2022-07-17T05:28:39;3.78;;;3.47;;
17574;SDS011;8906;43.590;1.418;2022-07-17T05:31:06;3.83;;;3.53;;
17574;SDS011;8906;43.590;1.418;2022-07-17T05:33:33;4.18;;;3.83;;
17574;SDS011;8906;43.590;1.418;2022-07-17T05:36:00;3.80;;;3.47;;
17574;SDS011;8906;43.590;1.418;2022-07-17T05:38:27;5.30;;;3.47;;
17574;SDS011;8906;43.590;1.418;2022-07-17T05:40:55;4.05;;;3.70;;
17574;SDS011;8906;43.590;1.418;2022-07-17T05:43:22;3.83;;;3.42;;
17574;SDS011;8906;43.590;1.418;2022-07-17T05:45:49;4.07;;;3.60;;
17574;SDS011;8906;43.590;1.418;2022-07-17T05:48:18;3.72;;;3.42;;
17574;SDS011;8906;43.590;1.418;2022-07-17T05:50:45;4.22;;;3.83;;
17574;SDS011;8906;43.590;1.418;2022-07-17T05:53:12;5.45;;;4.05;;
17574;SDS011;8906;43.590;1.418;2022-07-17T05:55:40;4.15;;;3.85;;
17574;SDS011;8906;43.590;1.418;2022-07-17T05:58:09;4.13;;;3.83;;
17574;SDS011;8906;43.590;1.418;2022-07-17T06:00:36;5.03;;;3.78;;
17574;SDS011;8906;43.590;1.418;2022-07-17T06:03:03;5.40;;;4.20;;
17574;SDS011;8906;43.590;1.418;2022-07-17T06:05:30;4.30;;;4.00;;
17574;SDS011;8906;43.590;1.418;2022-07-17T06:07:58;4.20;;;3.90;;
17574;SDS011;8906;43.590;1.418;2022-07-17T06:10:25;3.58;;;3.28;;
17574;SDS011;8906;43.590;1.418;2022-07-17T06:12:53;3.70;;;3.22;;
17574;SDS011;8906;43.590;1.418;2022-07-17T06:15:22;5.53;;;4.05;;
17574;SDS011;8906;43.590;1.418;2022-07-17T06:17:50;4.03;;;3.70;;
17574;SDS011;8906;43.590;1.418;2022-07-17T06:20:17;4.78;;;4.25;;
17574;SDS011;8906;43.590;1.418;2022-07-17T06:22:45;4.30;;;4.00;;
17574;SDS011;8906;43.590;1.418;2022-07-17T06:25:12;5.30;;;4.00;;
17574;SDS011;8906;43.590;1.418;2022-07-17T06:27:39;4.63;;;4.22;;
17574;SDS011;8906;43.590;1.418;2022-07-17T06:30:07;4.80;;;4.40;;
17574;SDS011;8906;43.590;1.418;2022-07-17T06:32:36;5.03;;;4.57;;
17574;SDS011;8906;43.590;1.418;2022-07-17T06:35:03;4.90;;;4.50;;
17574;SDS011;8906;43.590;1.418;2022-07-17T06:37:31;4.70;;;3.95;;
17574;SDS011;8906;43.590;1.418;2022-07-17T06:39:58;4.25;;;3.83;;
17574;SDS011;8906;43.590;1.418;2022-07-17T06:42:25;4.88;;;4.43;;
17574;SDS011;8906;43.590;1.418;2022-07-17T06:44:52;4.55;;;4.15;;
17574;SDS011;8906;43.590;1.418;2022-07-17T06:47:19;4.60;;;4.20;;
17574;SDS011;8906;43.590;1.418;2022-07-17T06:49:47;4.63;;;4.22;;
17574;SDS011;8906;43.590;1.418;2022-07-17T06:52:14;4.88;;;4.20;;
17574;SDS011;8906;43.590;1.418;2022-07-17T06:54:41;5.22;;;4.72;;
17574;SDS011;8906;43.590;1.418;2022-07-17T06:57:08;5.30;;;4.80;;
17574;SDS011;8906;43.590;1.418;2022-07-17T06:59:35;5.95;;;5.00;;
17574;SDS011;8906;43.590;1.418;2022-07-17T07:02:02;5.05;;;4.53;;
17574;SDS011;8906;43.590;1.418;2022-07-17T07:04:29;5.88;;;5.38;;
17574;SDS011;8906;43.590;1.418;2022-07-17T07:06:57;6.15;;;4.88;;
17574;SDS011;8906;43.590;1.418;2022-07-17T07:09:24;5.63;;;5.00;;
17574;SDS011;8906;43.590;1.418;2022-07-17T07:11:51;5.50;;;5.10;;
17574;SDS011;8906;43.590;1.418;2022-07-17T07:14:18;5.07;;;4.30;;
17574;SDS011;8906;43.590;1.418;2022-07-17T07:16:45;4.90;;;4.50;;
17574;SDS011;8906;43.590;1.418;2022-07-17T07:19:12;5.07;;;4.63;;
17574;SDS011;8906;43.590;1.418;2022-07-17T07:21:39;5.07;;;4.50;;
17574;SDS011;8906;43.590;1.418;2022-07-17T07:24:08;5.28;;;4.78;;
17574;SDS011;8906;43.590;1.418;2022-07-17T07:26:34;5.38;;;4.53;;
17574;SDS011;8906;43.590;1.418;2022-07-17T07:29:01;4.88;;;4.47;;
17574;SDS011;8906;43.590;1.418;2022-07-17T07:31:28;5.30;;;4.80;;
17574;SDS011;8906;43.590;1.418;2022-07-17T07:33:55;4.63;;;4.22;;
17574;SDS011;8906;43.590;1.418;2022-07-17T07:36:22;4.45;;;4.05;;
17574;SDS011;8906;43.590;1.418;2022-07-17T07:38:49;5.85;;;5.35;;
17574;SDS011;8906;43.590;1.418;2022-07-17T07:41:18;5.40;;;4.88;;
17574;SDS011;8906;43.590;1.418;2022-07-17T07:43:45;4.20;;;3.90;;
17574;SDS011;8906;43.590;1.418;2022-07-17T07:46:12;5.82;;;5.32;;
17574;SDS011;8906;43.590;1.418;2022-07-17T07:48:39;5.70;;;5.13;;
17574;SDS011;8906;43.590;1.418;2022-07-17T07:51:06;4.40;;;4.10;;
17574;SDS011;8906;43.590;1.418;2022-07-17T07:53:34;5.32;;;4.82;;
17574;SDS011;8906;43.590;1.418;2022-07-17T07:56:01;5.28;;;4.85;;
17574;SDS011;8906;43.590;1.418;2022-07-17T07:58:29;4.40;;;3.97;;
17574;SDS011;8906;43.590;1.418;2022-07-17T08:00:56;4.97;;;4.57;;
17574;SDS011;8906;43.590;1.418;2022-07-17T08:03:23;4.72;;;4.30;;
17574;SDS011;8906;43.590;1.418;2022-07-17T08:05:50;6.43;;;4.75;;
17574;SDS011;8906;43.590;1.418;2022-07-17T08:08:17;4.40;;;4.00;;
17574;SDS011;8906;43.590;1.418;2022-07-17T08:10:44;4.10;;;3.60;;
17574;SDS011;8906;43.590;1.418;2022-07-17T08:13:11;4.38;;;4.07;;
17574;SDS011;8906;43.590;1.418;2022-07-17T08:15:39;5.57;;;5.18;;
17574;SDS011;8906;43.590;1.418;2022-07-17T08:18:06;5.70;;;5.20;;
17574;SDS011;8906;43.590;1.418;2022-07-17T08:20:33;5.30;;;4.80;;
17574;SDS011;8906;43.590;1.418;2022-07-17T08:23:00;4.88;;;4.47;;
17574;SDS011;8906;43.590;1.418;2022-07-17T08:25:27;6.88;;;5.22;;
17574;SDS011;8906;43.590;1.418;2022-07-17T08:27:54;5.53;;;4.97;;
17574;SDS011;8906;43.590;1.418;2022-07-17T08:30:21;5.95;;;4.95;;
17574;SDS011;8906;43.590;1.418;2022-07-17T08:32:50;4.95;;;4.50;;
17574;SDS011;8906;43.590;1.418;2022-07-17T08:35:17;4.22;;;3.92;;
17574;SDS011;8906;43.590;1.418;2022-07-17T08:37:45;5.10;;;4.68;;
17574;SDS011;8906;43.590;1.418;2022-07-17T08:40:16;5.30;;;4.80;;
17574;SDS011;8906;43.590;1.418;2022-07-17T08:42:45;5.30;;;5.00;;
17574;SDS011;8906;43.590;1.418;2022-07-17T08:45:12;5.15;;;4.70;;
17574;SDS011;8906;43.590;1.418;2022-07-17T08:47:39;4.40;;;4.00;;
17574;SDS011;8906;43.590;1.418;2022-07-17T08:50:08;8.43;;;6.25;;
17574;SDS011;8906;43.590;1.418;2022-07-17T08:52:36;4.75;;;4.35;;
17574;SDS011;8906;43.590;1.418;2022-07-17T08:55:04;5.03;;;4.63;;
17574;SDS011;8906;43.590;1.418;2022-07-17T08:57:36;5.35;;;4.85;;
17574;SDS011;8906;43.590;1.418;2022-07-17T09:00:04;4.72;;;4.30;;
17574;SDS011;8906;43.590;1.418;2022-07-17T09:02:31;4.72;;;4.43;;
17574;SDS011;8906;43.590;1.418;2022-07-17T09:04:58;5.78;;;4.78;;
17574;SDS011;8906;43.590;1.418;2022-07-17T09:07:27;5.93;;;4.53;;
17574;SDS011;8906;43.590;1.418;2022-07-17T09:09:54;6.05;;;5.55;;
17574;SDS011;8906;43.590;1.418;2022-07-17T09:12:23;4.43;;;3.92;;
17574;SDS011;8906;43.590;1.418;2022-07-17T09:14:51;5.18;;;4.78;;
17574;SDS011;8906;43.590;1.418;2022-07-17T09:17:19;4.55;;;4.15;;
17574;SDS011;8906;43.590;1.418;2022-07-17T09:19:46;4.93;;;4.63;;
17574;SDS011;8906;43.590;1.418;2022-07-17T09:22:13;4.57;;;4.18;;
17574;SDS011;8906;43.590;1.418;2022-07-17T09:24:47;6.95;;;4.72;;
17574;SDS011;8906;43.590;1.418;2022-07-17T09:27:28;3.72;;;3.42;;
17574;SDS011;8906;43.590;1.418;2022-07-17T09:29:57;4.43;;;4.07;;
17574;SDS011;8906;43.590;1.418;2022-07-17T09:32:26;3.67;;;3.40;;
17574;SDS011;8906;43.590;1.418;2022-07-17T09:34:55;4.70;;;4.13;;
17574;SDS011;8906;43.590;1.418;2022-07-17T09:37:25;4.90;;;4.00;;
17574;SDS011;8906;43.590;1.418;2022-07-17T09:39:55;4.22;;;3.92;;
17574;SDS011;8906;43.590;1.418;2022-07-17T09:42:24;3.95;;;3.65;;
17574;SDS011;8906;43.590;1.418;2022-07-17T09:44:59;4.15;;;3.63;;
17574;SDS011;8906;43.590;1.418;2022-07-17T09:47:28;4.20;;;3.90;;
17574;SDS011;8906;43.590;1.418;2022-07-17T09:49:57;3.90;;;3.55;;
17574;SDS011;8906;43.590;1.418;2022-07-17T09:52:26;5.10;;;4.07;;
17574;SDS011;8906;43.590;1.418;2022-07-17T09:54:56;4.45;;;3.72;;
17574;SDS011;8906;43.590;1.418;2022-07-17T09:57:25;5.55;;;4.40;;
17574;SDS011;8906;43.590;1.418;2022-07-17T09:59:54;4.75;;;4.35;;
17574;SDS011;8906;43.590;1.418;2022-07-17T10:02:22;5.88;;;3.90;;
17574;SDS011;8906;43.590;1.418;2022-07-17T10:04:50;4.75;;;4.38;;
17574;SDS011;8906;43.590;1.418;2022-07-17T10:07:18;3.83;;;3.53;;
17574;SDS011;8906;43.590;1.418;2022-07-17T10:09:45;4.60;;;3.90;;
17574;SDS011;8906;43.590;1.418;2022-07-17T10:12:14;4.00;;;3.60;;
17574;SDS011;8906;43.590;1.418;2022-07-17T10:14:43;4.47;;;4.00;;
17574;SDS011;8906;43.590;1.418;2022-07-17T10:17:13;4.05;;;3.55;;
17574;SDS011;8906;43.590;1.418;2022-07-17T10:19:46;3.88;;;3.58;;
17574;SDS011;8906;43.590;1.418;2022-07-17T10:22:15;4.38;;;3.97;;
17574;SDS011;8906;43.590;1.418;2022-07-17T10:24:46;3.55;;;3.35;;
17574;SDS011;8906;43.590;1.418;2022-07-17T10:27:19;3.45;;;2.97;;
17574;SDS011;8906;43.590;1.418;2022-07-17T10:29:47;3.63;;;3.42;;
17574;SDS011;8906;43.590;1.418;2022-07-17T10:32:25;2.95;;;2.75;;
17574;SDS011;8906;43.590;1.418;2022-07-17T10:34:53;3.53;;;3.33;;
17574;SDS011;8906;43.590;1.418;2022-07-17T10:37:26;4.25;;;3.95;;
17574;SDS011;8906;43.590;1.418;2022-07-17T10:39:58;4.20;;;3.90;;
17574;SDS011;8906;43.590;1.418;2022-07-17T10:42:42;3.88;;;3.67;;
17574;SDS011;8906;43.590;1.418;2022-07-17T10:45:12;3.78;;;3.47;;
17574;SDS011;8906;43.590;1.418;2022-07-17T10:47:44;3.25;;;3.00;;
17574;SDS011;8906;43.590;1.418;2022-07-17T10:50:13;3.88;;;3.15;;
17574;SDS011;8906;43.590;1.418;2022-07-17T10:52:40;3.90;;;3.47;;
17574;SDS011;8906;43.590;1.418;2022-07-17T10:55:17;3.40;;;3.00;;
17574;SDS011;8906;43.590;1.418;2022-07-17T10:57:47;3.72;;;3.42;;
17574;SDS011;8906;43.590;1.418;2022-07-17T11:00:15;4.38;;;3.55;;
17574;SDS011;8906;43.590;1.418;2022-07-17T11:02:42;4.50;;;3.95;;
17574;SDS011;8906;43.590;1.418;2022-07-17T11:05:10;3.28;;;3.05;;
17574;SDS011;8906;43.590;1.418;2022-07-17T11:07:52;3.47;;;3.17;;
17574;SDS011;8906;43.590;1.418;2022-07-17T11:10:21;4.30;;;3.70;;
17574;SDS011;8906;43.590;1.418;2022-07-17T11:12:51;3.20;;;3.00;;
17574;SDS011;8906;43.590;1.418;2022-07-17T11:15:18;2.85;;;2.72;;
17574;SDS011;8906;43.590;1.418;2022-07-17T11:17:46;3.50;;;3.20;;
17574;SDS011;8906;43.590;1.418;2022-07-17T11:20:15;3.40;;;3.13;;
17574;SDS011;8906;43.590;1.418;2022-07-17T11:22:42;3.90;;;3.40;;
17574;SDS011;8906;43.590;1.418;2022-07-17T11:25:09;3.13;;;2.80;;
17574;SDS011;8906;43.590;1.418;2022-07-17T11:27:37;3.90;;;3.40;;
17574;SDS011;8906;43.590;1.418;2022-07-17T11:30:10;4.22;;;3.10;;
17574;SDS011;8906;43.590;1.418;2022-07-17T11:32:41;3.88;;;2.90;;
17574;SDS011;8906;43.590;1.418;2022-07-17T11:35:15;3.50;;;3.17;;
17574;SDS011;8906;43.590;1.418;2022-07-17T11:37:43;3.00;;;2.72;;
17574;SDS011;8906;43.590;1.418;2022-07-17T11:40:10;3.38;;;3.03;;
17574;SDS011;8906;43.590;1.418;2022-07-17T11:42:37;5.70;;;2.97;;
17574;SDS011;8906;43.590;1.418;2022-07-17T11:45:06;2.92;;;2.72;;
17574;SDS011;8906;43.590;1.418;2022-07-17T11:47:35;4.15;;;3.80;;
17574;SDS011;8906;43.590;1.418;2022-07-17T11:50:09;2.85;;;2.65;;
17574;SDS011;8906;43.590;1.418;2022-07-17T11:52:41;2.47;;;2.28;;
17574;SDS011;8906;43.590;1.418;2022-07-17T11:55:10;2.75;;;2.55;;
17574;SDS011;8906;43.590;1.418;2022-07-17T11:57:42;3.03;;;2.83;;
17574;SDS011;8906;43.590;1.418;2022-07-17T12:00:13;3.80;;;3.17;;
17574;SDS011;8906;43.590;1.418;2022-07-17T12:02:41;2.78;;;2.58;;
17574;SDS011;8906;43.590;1.418;2022-07-17T12:05:09;3.30;;;2.30;;
17574;SDS011;8906;43.590;1.418;2022-07-17T12:07:40;3.03;;;2.83;;
17574;SDS011;8906;43.590;1.418;2022-07-17T12:10:12;3.35;;;2.60;;
17574;SDS011;8906;43.590;1.418;2022-07-17T12:12:50;3.13;;;2.92;;
17574;SDS011;8906;43.590;1.418;2022-07-17T12:15:20;2.90;;;2.70;;
17574;SDS011;8906;43.590;1.418;2022-07-17T12:17:47;2.58;;;2.38;;
17574;SDS011;8906;43.590;1.418;2022-07-17T12:20:14;3.00;;;2.70;;
17574;SDS011;8906;43.590;1.418;2022-07-17T12:22:42;3.45;;;2.80;;
17574;SDS011;8906;43.590;1.418;2022-07-17T12:25:20;2.58;;;2.38;;
17574;SDS011;8906;43.590;1.418;2022-07-17T12:27:50;3.00;;;2.80;;
17574;SDS011;8906;43.590;1.418;2022-07-17T12:30:18;3.33;;;3.03;;
17574;SDS011;8906;43.590;1.418;2022-07-17T12:32:46;3.08;;;2.85;;
17574;SDS011;8906;43.590;1.418;2022-07-17T12:35:13;3.05;;;2.70;;
17574;SDS011;8906;43.590;1.418;2022-07-17T12:37:40;3.05;;;2.17;;
17574;SDS011;8906;43.590;1.418;2022-07-17T12:40:08;2.00;;;1.90;;
17574;SDS011;8906;43.590;1.418;2022-07-17T12:42:36;3.55;;;2.33;;
17574;SDS011;8906;43.590;1.418;2022-07-17T12:45:03;2.13;;;2.03;;
17574;SDS011;8906;43.590;1.418;2022-07-17T12:47:32;2.53;;;2.35;;
17574;SDS011;8906;43.590;1.418;2022-07-17T12:50:00;2.20;;;2.10;;
17574;SDS011;8906;43.590;1.418;2022-07-17T12:52:27;2.25;;;2.05;;
17574;SDS011;8906;43.590;1.418;2022-07-17T12:54:54;5.63;;;2.53;;
17574;SDS011;8906;43.590;1.418;2022-07-17T12:57:20;1.80;;;1.70;;
17574;SDS011;8906;43.590;1.418;2022-07-17T12:59:48;2.90;;;2.25;;
17574;SDS011;8906;43.590;1.418;2022-07-17T13:02:15;2.42;;;2.33;;
17574;SDS011;8906;43.590;1.418;2022-07-17T13:04:43;2.15;;;2.05;;
17574;SDS011;8906;43.590;1.418;2022-07-17T13:07:10;2.08;;;1.95;;
17574;SDS011;8906;43.590;1.418;2022-07-17T13:09:37;3.55;;;1.92;;
17574;SDS011;8906;43.590;1.418;2022-07-17T13:12:04;2.42;;;2.22;;
17574;SDS011;8906;43.590;1.418;2022-07-17T13:14:31;1.83;;;1.73;;
17574;SDS011;8906;43.590;1.418;2022-07-17T13:16:58;1.90;;;1.67;;
17574;SDS011;8906;43.590;1.418;2022-07-17T13:19:25;3.33;;;1.85;;
17574;SDS011;8906;43.590;1.418;2022-07-17T13:21:54;3.70;;;2.65;;
17574;SDS011;8906;43.590;1.418;2022-07-17T13:24:21;3.83;;;2.38;;
17574;SDS011;8906;43.590;1.418;2022-07-17T13:26:48;2.70;;;2.50;;
17574;SDS011;8906;43.590;1.418;2022-07-17T13:29:15;2.05;;;1.80;;
17574;SDS011;8906;43.590;1.418;2022-07-17T13:31:42;1.42;;;1.38;;
17574;SDS011;8906;43.590;1.418;2022-07-17T13:34:09;1.42;;;1.38;;
17574;SDS011;8906;43.590;1.418;2022-07-17T13:36:36;2.13;;;2.00;;
17574;SDS011;8906;43.590;1.418;2022-07-17T13:39:05;1.95;;;1.85;;
17574;SDS011;8906;43.590;1.418;2022-07-17T13:41:32;1.85;;;1.75;;
17574;SDS011;8906;43.590;1.418;2022-07-17T13:43:59;1.88;;;1.70;;
17574;SDS011;8906;43.590;1.418;2022-07-17T13:46:26;1.98;;;1.88;;
17574;SDS011;8906;43.590;1.418;2022-07-17T13:48:53;1.50;;;1.40;;
17574;SDS011;8906;43.590;1.418;2022-07-17T13:51:20;4.95;;;2.03;;
17574;SDS011;8906;43.590;1.418;2022-07-17T13:53:47;1.70;;;1.60;;
17574;SDS011;8906;43.590;1.418;2022-07-17T13:56:15;1.25;;;1.25;;
17574;SDS011;8906;43.590;1.418;2022-07-17T13:58:43;1.73;;;1.63;;
17574;SDS011;8906;43.590;1.418;2022-07-17T14:01:11;1.55;;;1.45;;
17574;SDS011;8906;43.590;1.418;2022-07-17T14:03:38;1.73;;;1.63;;
17574;SDS011;8906;43.590;1.418;2022-07-17T14:06:05;1.70;;;1.60;;
17574;SDS011;8906;43.590;1.418;2022-07-17T14:08:32;1.60;;;1.42;;
17574;SDS011;8906;43.590;1.418;2022-07-17T14:10:59;1.40;;;1.30;;
17574;SDS011;8906;43.590;1.418;2022-07-17T14:13:28;1.27;;;1.17;;
17574;SDS011;8906;43.590;1.418;2022-07-17T14:15:55;2.40;;;1.38;;
17574;SDS011;8906;43.590;1.418;2022-07-17T14:18:23;1.38;;;1.27;;
17574;SDS011;8906;43.590;1.418;2022-07-17T14:20:49;1.52;;;1.42;;
17574;SDS011;8906;43.590;1.418;2022-07-17T14:23:17;1.40;;;1.30;;
17574;SDS011;8906;43.590;1.418;2022-07-17T14:25:44;1.67;;;1.42;;
17574;SDS011;8906;43.590;1.418;2022-07-17T14:28:11;1.70;;;1.60;;
17574;SDS011;8906;43.590;1.418;2022-07-17T14:30:39;1.63;;;1.52;;
17574;SDS011;8906;43.590;1.418;2022-07-17T14:33:06;1.58;;;1.48;;
17574;SDS011;8906;43.590;1.418;2022-07-17T14:35:33;1.30;;;1.17;;
17574;SDS011;8906;43.590;1.418;2022-07-17T14:38:01;9.35;;;1.55;;
17574;SDS011;8906;43.590;1.418;2022-07-17T14:40:31;1.13;;;1.10;;
17574;SDS011;8906;43.590;1.418;2022-07-17T14:42:58;1.30;;;1.30;;
17574;SDS011;8906;43.590;1.418;2022-07-17T14:45:25;1.48;;;1.02;;
17574;SDS011;8906;43.590;1.418;2022-07-17T14:47:53;1.05;;;1.00;;
17574;SDS011;8906;43.590;1.418;2022-07-17T14:50:20;1.13;;;1.02;;
17574;SDS011;8906;43.590;1.418;2022-07-17T14:52:47;1.48;;;1.27;;
17574;SDS011;8906;43.590;1.418;2022-07-17T14:55:14;2.88;;;1.50;;
17574;SDS011;8906;43.590;1.418;2022-07-17T14:57:41;1.98;;;1.60;;
17574;SDS011;8906;43.590;1.418;2022-07-17T15:00:08;1.48;;;1.38;;
17574;SDS011;8906;43.590;1.418;2022-07-17T15:02:36;1.40;;;1.10;;
17574;SDS011;8906;43.590;1.418;2022-07-17T15:05:05;1.60;;;1.50;;